OYFFF EDHL-EKCH
Flight info
| Callsign | OYFFF |
|---|---|
| Flight time | N/A |
| Altitude | 23000 |
| Route | LUGEG2K LUGEG P605 GESKA/N0304F220 Z711 MONAK |
| Aircraft | TBM9/L-SDFGRWY/S |
Departure
| Time | 2026-04-25 13:54 |
|---|---|
| Airport | Lübeck Blankensee Airport (EDHL) |
Arrival
| Time | N/A |
|---|---|
| Airport | Copenhagen Kastrup Airport (EKCH) |
| Time | Latitude | Longitude | Altitude | Speed | Heading |
|---|---|---|---|---|---|
| 2026-04-25 13:43 | 53.80468 | 10.70356 | 57 ft | 0 kts | 107° |
| 2026-04-25 13:49 | 53.80466 | 10.70374 | 54 ft | 0 kts | 86° |
| 2026-04-25 13:50 | 53.80466 | 10.70386 | 57 ft | 7 kts | 94° |
| 2026-04-25 13:50 | 53.80473 | 10.70553 | 56 ft | 17 kts | 76° |
| 2026-04-25 13:50 | 53.80511 | 10.70752 | 54 ft | 19 kts | 71° |
| 2026-04-25 13:50 | 53.80553 | 10.70967 | 55 ft | 20 kts | 73° |
| 2026-04-25 13:51 | 53.80593 | 10.71195 | 54 ft | 21 kts | 73° |
| 2026-04-25 13:51 | 53.80637 | 10.71435 | 52 ft | 22 kts | 72° |
| 2026-04-25 13:51 | 53.80657 | 10.71643 | 55 ft | 18 kts | 109° |
| 2026-04-25 13:51 | 53.80617 | 10.71810 | 54 ft | 7 kts | 115° |
| 2026-04-25 13:52 | 53.80616 | 10.71812 | 51 ft | 0 kts | 115° |
| 2026-04-25 13:53 | 53.80616 | 10.71813 | 51 ft | 2 kts | 115° |
| 2026-04-25 13:53 | 53.80572 | 10.71987 | 51 ft | 22 kts | 126° |
| 2026-04-25 13:53 | 53.80543 | 10.72012 | 53 ft | 0 kts | 211° |
| 2026-04-25 13:53 | 53.80527 | 10.71963 | 53 ft | 22 kts | 251° |
| 2026-04-25 13:54 | 53.80426 | 10.71433 | 56 ft | 74 kts | 253° |
| 2026-04-25 13:54 | 53.80211 | 10.70353 | 237 ft | 109 kts | 250° |
| 2026-04-25 13:54 | 53.79938 | 10.69166 | 779 ft | 114 kts | 250° |
| 2026-04-25 13:54 | 53.79664 | 10.67849 | 1344 ft | 119 kts | 251° |
| 2026-04-25 13:55 | 53.79376 | 10.66542 | 1991 ft | 118 kts | 250° |
| 2026-04-25 13:55 | 53.79093 | 10.65254 | 2654 ft | 116 kts | 250° |
| 2026-04-25 13:55 | 53.78817 | 10.63978 | 3278 ft | 115 kts | 250° |
| 2026-04-25 13:55 | 53.78544 | 10.62713 | 3900 ft | 114 kts | 250° |
| 2026-04-25 13:56 | 53.78268 | 10.61458 | 4506 ft | 114 kts | 250° |
| 2026-04-25 13:56 | 53.78005 | 10.60182 | 4975 ft | 124 kts | 259° |
| 2026-04-25 13:56 | 53.78196 | 10.58537 | 5009 ft | 168 kts | 290° |
| 2026-04-25 13:56 | 53.78668 | 10.56497 | 5012 ft | 203 kts | 294° |
| 2026-04-25 13:57 | 53.79536 | 10.54494 | 5106 ft | 222 kts | 315° |
| 2026-04-25 13:57 | 53.80321 | 10.53318 | 5156 ft | 231 kts | 321° |
| 2026-04-25 13:57 | 53.82146 | 10.51319 | 5292 ft | 240 kts | 329° |
| 2026-04-25 13:57 | 53.83754 | 10.50877 | 5546 ft | 238 kts | 3° |
| 2026-04-25 13:58 | 53.85428 | 10.51340 | 5474 ft | 249 kts | 14° |
| 2026-04-25 13:58 | 53.87057 | 10.52449 | 5385 ft | 256 kts | 28° |
| 2026-04-25 13:58 | 53.88497 | 10.54254 | 5282 ft | 260 kts | 44° |
| 2026-04-25 13:58 | 53.89604 | 10.56641 | 5165 ft | 263 kts | 59° |
| 2026-04-25 13:59 | 53.90298 | 10.59453 | 5044 ft | 248 kts | 75° |
| 2026-04-25 13:59 | 53.90474 | 10.62234 | 4992 ft | 229 kts | 93° |
| 2026-04-25 13:59 | 53.90381 | 10.64850 | 4993 ft | 217 kts | 88° |
| 2026-04-25 13:59 | 53.90567 | 10.67397 | 4896 ft | 213 kts | 78° |
| 2026-04-25 14:00 | 53.90822 | 10.69000 | 4849 ft | 213 kts | 72° |
| 2026-04-25 14:00 | 53.91623 | 10.72045 | 4840 ft | 208 kts | 52° |
| 2026-04-25 14:00 | 53.92626 | 10.73757 | 4949 ft | 202 kts | 44° |
| 2026-04-25 14:00 | 53.93612 | 10.75420 | 4983 ft | 203 kts | 44° |
| 2026-04-25 14:01 | 53.94618 | 10.77116 | 4985 ft | 205 kts | 44° |
| 2026-04-25 14:01 | 53.95633 | 10.78830 | 4982 ft | 206 kts | 44° |
| 2026-04-25 14:01 | 53.96649 | 10.80550 | 4982 ft | 207 kts | 44° |
| 2026-04-25 14:01 | 53.97668 | 10.82279 | 4986 ft | 207 kts | 44° |
| 2026-04-25 14:02 | 53.98681 | 10.84001 | 5041 ft | 205 kts | 45° |
| 2026-04-25 14:02 | 53.99685 | 10.85706 | 5161 ft | 201 kts | 44° |
| 2026-04-25 14:02 | 54.00666 | 10.87373 | 5270 ft | 199 kts | 44° |
| 2026-04-25 14:02 | 54.00984 | 10.87912 | 5288 ft | 199 kts | 44° |
| 2026-04-25 14:03 | 54.02630 | 10.90706 | 5404 ft | 200 kts | 44° |
| 2026-04-25 14:03 | 54.03601 | 10.92353 | 5472 ft | 200 kts | 44° |
| 2026-04-25 14:03 | 54.04585 | 10.94022 | 5542 ft | 200 kts | 44° |
| 2026-04-25 14:03 | 54.05572 | 10.95696 | 5616 ft | 200 kts | 44° |
| 2026-04-25 14:04 | 54.06561 | 10.97371 | 5679 ft | 201 kts | 44° |
| 2026-04-25 14:04 | 54.07550 | 10.99047 | 5745 ft | 201 kts | 44° |
| 2026-04-25 14:04 | 54.08540 | 11.00725 | 5816 ft | 201 kts | 44° |
| 2026-04-25 14:04 | 54.09533 | 11.02407 | 5879 ft | 201 kts | 44° |
| 2026-04-25 14:05 | 54.10524 | 11.04086 | 5938 ft | 201 kts | 44° |
| 2026-04-25 14:05 | 54.11519 | 11.05770 | 6010 ft | 202 kts | 44° |
| 2026-04-25 14:05 | 54.12500 | 11.07431 | 6073 ft | 202 kts | 44° |
| 2026-04-25 14:05 | 54.13495 | 11.09116 | 6136 ft | 202 kts | 44° |
| 2026-04-25 14:06 | 54.14486 | 11.10794 | 6199 ft | 202 kts | 44° |
| 2026-04-25 14:06 | 54.15484 | 11.12482 | 6263 ft | 202 kts | 44° |
| 2026-04-25 14:06 | 54.16483 | 11.14174 | 6325 ft | 202 kts | 44° |
| 2026-04-25 14:06 | 54.17485 | 11.15867 | 6389 ft | 203 kts | 44° |
| 2026-04-25 14:07 | 54.18485 | 11.17561 | 6446 ft | 203 kts | 44° |
| 2026-04-25 14:07 | 54.19488 | 11.19257 | 6509 ft | 203 kts | 44° |
| 2026-04-25 14:07 | 54.20478 | 11.20931 | 6568 ft | 203 kts | 44° |
| 2026-04-25 14:07 | 54.21484 | 11.22631 | 6628 ft | 203 kts | 44° |
| 2026-04-25 14:08 | 54.22490 | 11.24332 | 6687 ft | 204 kts | 44° |
| 2026-04-25 14:08 | 54.23498 | 11.26036 | 6747 ft | 204 kts | 44° |
| 2026-04-25 14:08 | 54.24505 | 11.27738 | 6804 ft | 204 kts | 44° |
| 2026-04-25 14:08 | 54.25515 | 11.29446 | 6862 ft | 204 kts | 44° |
| 2026-04-25 14:09 | 54.26525 | 11.31151 | 6924 ft | 204 kts | 44° |
| 2026-04-25 14:09 | 54.27535 | 11.32858 | 6976 ft | 204 kts | 44° |
| 2026-04-25 14:09 | 54.28547 | 11.34571 | 7033 ft | 205 kts | 44° |
| 2026-04-25 14:09 | 54.29218 | 11.35707 | 7070 ft | 205 kts | 44° |
| 2026-04-25 14:10 | 54.30557 | 11.37977 | 7143 ft | 205 kts | 44° |
| 2026-04-25 14:10 | 54.31571 | 11.39698 | 7198 ft | 205 kts | 44° |
| 2026-04-25 14:10 | 54.32586 | 11.41421 | 7253 ft | 205 kts | 44° |
| 2026-04-25 14:10 | 54.33225 | 11.42507 | 7290 ft | 205 kts | 44° |
| 2026-04-25 14:11 | 54.34241 | 11.44232 | 7342 ft | 206 kts | 44° |
| 2026-04-25 14:11 | 54.35257 | 11.45960 | 7395 ft | 206 kts | 44° |
| 2026-04-25 14:11 | 54.36272 | 11.47687 | 7449 ft | 206 kts | 44° |
| 2026-04-25 14:11 | 54.37289 | 11.49419 | 7493 ft | 206 kts | 44° |
| 2026-04-25 14:12 | 54.38292 | 11.51128 | 7554 ft | 206 kts | 44° |
| 2026-04-25 14:12 | 54.39310 | 11.52863 | 7606 ft | 206 kts | 44° |
| 2026-04-25 14:12 | 54.40328 | 11.54599 | 7659 ft | 207 kts | 44° |
| 2026-04-25 14:12 | 54.41348 | 11.56339 | 7711 ft | 207 kts | 44° |
| 2026-04-25 14:13 | 54.42366 | 11.58078 | 7762 ft | 207 kts | 44° |
| 2026-04-25 14:13 | 54.43387 | 11.59823 | 7814 ft | 207 kts | 44° |
| 2026-04-25 14:13 | 54.44408 | 11.61568 | 7865 ft | 207 kts | 44° |
| 2026-04-25 14:13 | 54.45430 | 11.63317 | 7915 ft | 207 kts | 44° |